Station: Scotts Peak

  Atmospheric Gas Attenuation - ITU Rec 676-11   --------------- db/100km ---------------
Date Time Temp RH % AH g/m3 Dew Point Wind Direction Speed kph Gust kph Barometer mB Rainfall Since 9am 24GHz 47GHz 76GHz 122GHz 134GHz 241GHz
22 13:30 30 31 9.4 11 11 15 1013.1 0 20.5 22.8 35.2 92.5 88.9 307.2
22 13:20 29.2 30 8.71 9.8 11 13 1013.1 0 19.1 22.0 33.3 87.3 82.3 283.8
22 13:10 30 30 9.1 10.5 13 15 1013.1 0 19.9 22.4 34.2 89.9 85.7 295.8
22 13:00 29.4 31 9.1 10.5 11 15 1013.1 0 19.9 22.5 34.5 90.5 86.3 297.9
22 12:50 28.8 31 8.81 10 13 15 1013.1 0 19.3 22.2 33.8 88.6 83.8 289.0
22 12:40 28.9 30 8.57 9.6 13 15 1013.1 0 18.8 21.9 33.0 86.4 81.1 279.6
22 12:30 29 34 9.77 11.6 11 15 1013.1 0 21.3 23.5 36.9 97.0 94.1 325.4
22 12:20 28.3 33 9.12 10.5 11 11 1013.1 0 20.0 22.8 35.0 91.9 87.7 302.7
22 12:10 28.4 37 10.29 12.3 11 13 1013.1 0 22.4 24.4 39.0 102.5 100.8 348.5
22 12:00 27.5 40 10.58 12.7 11 13 1013.1 0 23.1 25.0 40.4 106.4 105.3 364.3
22 11:50 27.1 38 9.83 11.6 9 11 1013.1 0 21.5 24.1 38.0 99.8 97.1 335.5
22 11:40 27.2 38 9.89 12 11 13 1013.1 0 21.6 24.1 38.1 100.2 97.6 337.5
22 11:30 28.2 44 12.1 14.8 11 15 1013.1 0 26.2 27.1 45.6 120.2 122.5 424.4
22 11:20 26.3 43 10.65 12.7 11 11 1013.1 0 23.3 25.5 41.3 108.6 107.7 372.6
22 11:10 25.2 47 10.94 13.1 9 11 1013.1 0 23.9 26.2 42.9 113.0 112.8 390.1
22 11:00 24.2 46 10.12 11.9 9 13 1013.1 0 22.3 25.3 40.4 106.3 104.1 359.9
22 10:50 24 49 10.66 12.6 11 13 1013.1 0 23.4 26.2 42.5 111.9 111.0 383.9
22 10:40 23.5 50 10.57 12.5 11 13 1013.1 0 23.3 26.2 42.5 111.7 110.6 382.4
22 10:30 23.2 50 10.39 12.2 9 11 1013.1 0 22.9 26.0 41.9 110.3 108.8 376.1
22 10:20 22.5 52 10.39 12.4 9 11 1013.1 0 22.9 26.2 42.3 111.3 109.8 379.4
22 10:10 22.9 56 11.44 13.7 9 11 1013.1 0 25.1 27.7 46.1 121.5 122.5 423.8
22 10:00 22.3 61 12.04 14.4 9 11 1013.1 0 26.4 28.8 48.9 128.8 131.2 454.4
22 09:50 21.2 61 11.3 13.4 7 7 1013.1 0 24.9 28.0 46.6 122.6 123.3 426.6
22 09:40 20.9 64 11.65 13.8 7 9 1013.1 0 25.7 28.7 48.2 126.8 128.4 444.4
22 09:30 20.3 60 10.55 12.3 6 7 1013.1 0 23.4 27.1 44.1 116.0 115.0 397.2
22 09:20 19.2 66 10.88 12.7 6 6 1013.1 0 24.2 28.0 46.1 121.2 120.9 418.0
22 09:10 18.5 69 10.92 12.7 7 9 1013.1 0 24.3 28.2 46.6 122.7 122.6 423.7
22 09:00 18.3 70 10.94 12.7 6 9 1013.1 0 24.3 28.3 46.8 123.3 123.2 425.7
22 08:50 17.8 73 11.08 12.9 7 7 1013.1 0 24.7 28.7 47.7 125.6 125.9 435.1
22 08:40 17.3 72 10.61 12.2 6 7 1013.1 0 23.7 28.1 46.1 121.2 120.3 415.5
22 08:30 16.7 71 10.09 11.4 2 6 1013.1 0 22.6 27.4 44.3 116.4 114.2 394.2
22 08:20 16.2 70 9.65 10.7 0 0 1013.1 0 21.7 26.9 42.8 112.4 109.1 376.2
22 08:10 15.9 70 9.48 10.4 0 0 1013.1 0 21.4 26.7 42.2 111.0 107.2 369.7
22 08:00 16.1 70 9.59 10.6 4 7 1013.1 0 21.6 26.8 42.6 111.9 108.4 373.9
22 07:50 16.1 70 9.59 10.6 0 0 1013.1 0 21.6 26.8 42.6 111.9 108.4 373.9
22 07:40 15.6 71 9.44 10.4 0 0 1013.1 0 21.3 26.7 42.2 111.0 107.1 369.3
22 07:30 15.2 71 9.22 10 6 9 1013.1 0 20.8 26.5 41.6 109.2 104.8 360.9
22 07:20 14.6 74 9.26 10 7 9 1013.1 0 21.0 26.7 42.0 110.5 106.1 365.6
22 07:10 13.6 78 9.18 9.8 9 9 1013.1 0 20.8 26.9 42.3 111.0 106.4 366.5
22 07:00 13.4 78 9.07 9.6 6 9 1013.1 0 20.6 26.8 41.9 110.1 105.2 362.2
22 06:50 13.3 80 9.24 9.9 9 9 1013.1 0 21.0 27.1 42.7 112.1 107.6 370.7
22 06:40 12.7 81 9.02 9.5 6 7 1013.1 0 20.5 26.9 42.1 110.5 105.5 363.1
22 06:30 12.5 82 9.02 9.5 9 11 1013.1 0 20.6 27.0 42.2 110.8 105.7 364.0
22 06:20 12.4 81 8.85 9.2 7 7 1013.1 0 20.2 26.7 41.5 109.1 103.6 356.4
22 06:10 12.4 82 8.96 9.4 7 7 1013.1 0 20.4 26.9 42.0 110.3 105.1 361.6
22 06:00 12.5 82 9.02 9.5 9 11 1013.1 0 20.6 27.0 42.2 110.8 105.7 364.0
22 05:50 12.3 81 8.8 9.1 9 9 1013.1 0 20.1 26.7 41.4 108.6 103.0 354.5
22 05:40 12.6 80 8.85 9.2 9 9 1013.1 0 20.2 26.7 41.4 108.8 103.3 355.5
22 05:20 12.9 79 8.9 9.4 6 7 1013.1 0 20.3 26.6 41.5 108.9 103.6 356.5
22 05:10 12.7 79 8.79 9.2 9 9 1013.1 0 20.1 26.5 41.1 108.0 102.4 352.2
22 05:00 12.9 77 8.68 9 9 11 1013.1 0 19.8 26.3 40.6 106.5 100.6 346.1
22 04:50 13.2 75 8.61 8.9 7 9 1013.1 0 19.6 26.1 40.1 105.3 99.3 341.5
22 04:40 13.1 76 8.67 9 9 11 1013.1 0 19.8 26.2 40.4 106.1 100.2 344.8
22 04:30 13.4 74 8.6 8.9 9 13 1013.1 0 19.6 26.0 40.0 105.0 98.9 340.2
22 04:20 13.5 74 8.66 9 11 11 1013.1 0 19.7 26.1 40.2 105.5 99.6 342.5
22 04:10 13.4 75 8.72 9.1 9 11 1013.1 0 19.9 26.2 40.5 106.3 100.5 345.8
22 04:00 13.5 75 8.77 9.2 11 13 1013.1 0 20.0 26.3 40.6 106.7 101.0 347.7
22 03:50 13.5 75 8.77 9.2 9 11 1013.1 0 20.0 26.3 40.6 106.7 101.0 347.7
22 03:40 13.7 74 8.76 9.2 11 13 1013.1 0 19.9 26.2 40.5 106.3 100.6 346.3
22 03:30 13.5 75 8.77 9.2 11 13 1013.1 0 20.0 26.3 40.6 106.7 101.0 347.7
22 03:20 13.6 74 8.71 9.1 11 13 1013.1 0 19.8 26.1 40.3 105.9 100.1 344.4
22 03:10 13.6 74 8.71 9.1 11 13 1013.1 0 19.8 26.1 40.3 105.9 100.1 344.4
22 03:00 13.7 74 8.76 9.2 11 15 1013.1 0 19.9 26.2 40.5 106.3 100.6 346.3
22 02:50 13.8 73 8.7 9 13 15 1013.1 0 19.8 26.1 40.2 105.5 99.7 343.1
22 02:40 14 73 8.81 9.2 17 19 1013.1 0 20.0 26.2 40.5 106.4 100.9 347.3
22 02:30 14 72 8.68 9 13 17 1013.1 0 19.8 26.0 40.0 105.0 99.2 341.3
22 02:20 14.2 71 8.67 9 13 15 1013.1 0 19.7 25.9 39.9 104.7 98.8 340.0
22 02:10 14.2 71 8.67 9 15 15 1013.1 0 19.7 25.9 39.9 104.7 98.8 340.0
22 02:00 14.3 71 8.72 9.1 13 20 1013.1 0 19.8 25.9 40.0 105.1 99.3 341.8
22 01:50 14.2 71 8.67 9 13 17 1013.1 0 19.7 25.9 39.9 104.7 98.8 340.0
22 01:40 14.5 69 8.58 8.9 15 17 1013.1 0 19.5 25.7 39.4 103.3 97.2 334.5
22 01:30 14.6 69 8.63 9 11 15 1013.1 0 19.6 25.7 39.5 103.7 97.8 336.4
22 01:20 14.7 69 8.69 9.1 13 15 1013.1 0 19.7 25.8 39.7 104.2 98.4 338.7
22 01:10 14.9 68 8.67 9.1 15 17 1013.1 0 19.7 25.7 39.5 103.7 97.9 337.0
22 01:00 14.9 68 8.67 9.1 15 19 1013.1 0 19.7 25.7 39.5 103.7 97.9 337.0
22 00:50 14.9 69 8.79 9.3 11 13 1013.1 0 19.9 25.9 40.0 105.0 99.5 342.4
22 00:40 15 69 8.85 9.4 13 15 1013.1 0 20.1 25.9 40.2 105.5 100.1 344.8
22 00:30 15.2 68 8.83 9.3 17 22 1013.1 0 20.0 25.9 40.0 105.0 99.6 343.0
22 00:20 15.4 68 8.93 9.5 17 20 1013.1 0 20.2 26.0 40.3 105.8 100.7 346.7
22 00:10 15.3 68 8.88 9.4 17 20 1013.1 0 20.1 25.9 40.2 105.4 100.1 344.8
22 00:00 15.5 68 8.99 9.6 17 20 1013.1 0 20.3 26.0 40.5 106.3 101.3 349.0
21 23:50 15.6 68 9.04 9.7 15 20 1013.1 0 20.4 26.1 40.6 106.7 101.9 350.8
21 23:40 15.8 68 9.15 9.9 17 19 1013.1 0 20.7 26.2 41.0 107.6 103.0 355.0
21 23:30 15.9 68 9.21 10 17 22 1013.1 0 20.8 26.3 41.2 108.1 103.7 357.3
21 23:20 16.1 67 9.18 10 17 20 1013.1 0 20.7 26.2 40.9 107.5 103.0 355.0
21 23:10 16.3 66 9.16 9.9 19 22 1013.1 0 20.7 26.1 40.8 107.0 102.5 353.2
21 23:00 16.5 65 9.13 9.9 17 22 1013.1 0 20.6 26.0 40.5 106.5 101.8 350.9
21 22:50 16.6 64 9.04 9.8 17 20 1013.1 0 20.4 25.8 40.1 105.4 100.6 346.4
21 22:40 16.9 63 9.06 9.8 19 22 1013.1 0 20.4 25.7 40.1 105.2 100.4 346.0
21 22:30 17.2 61 8.93 9.6 19 22 1013.1 0 20.1 25.4 39.4 103.4 98.4 338.9
21 22:20 17.5 60 8.94 9.7 19 24 1013.1 0 20.1 25.4 39.3 103.2 98.1 338.0
21 22:10 17.8 59 8.95 9.7 15 17 1013.1 0 20.1 25.3 39.2 102.9 97.9 337.2
21 22:00 18 58 8.91 9.6 20 28 1013.1 0 20.0 25.2 38.9 102.2 97.1 334.6
21 21:50 18.2 57 8.86 9.5 20 28 1013.1 0 19.9 25.0 38.6 101.4 96.3 331.5
21 21:40 18.5 55 8.7 9.3 15 17 1013.1 0 19.6 24.7 37.9 99.4 93.9 323.3
21 21:30 18.9 53 8.59 9.1 17 24 1013.1 0 19.3 24.4 37.3 97.8 92.1 316.9
21 21:20 19.1 52 8.52 9 17 19 1013.1 0 19.2 24.3 36.9 96.9 91.0 313.1
21 21:10 19.4 51 8.51 9 15 19 1013.1 0 19.1 24.2 36.8 96.4 90.5 311.5
21 21:00 19.7 50 8.49 9 17 24 1013.1 0 19.1 24.1 36.6 95.9 89.9 309.5
21 20:50 20 48 8.29 8.7 13 20 1013.1 0 18.6 23.7 35.7 93.6 87.2 299.9

Last Refresh: 22-Jan-2022 13:10:49

Bureau of Meteorology